Time;durP1;ratioP1;P1;durP2;ratioP2;P2;SDS_P1;SDS_P2;PMS_P1;PMS_P2;Temp;Humidity;BMP_temperature;BMP_pressure;BME280_temperature;BME280_humidity;BME280_pressure;Samples;Min_cycle;Max_cycle;Signal;HPM_P1;HPM_P2
2022/01/20 00:02:22;;;;;;;49.63;27.23;;;;;;;1.08;68.27;100378.19;5134728;27;20435;-67
2022/01/20 00:04:52;;;;;;;46.80;26.33;;;;;;;1.09;68.55;100375.47;5134304;27;20442;-66
2022/01/20 00:07:31;;;;;;;55.93;27.03;;;;;;;1.07;69.53;100372.16;5134607;27;20457;-67
2022/01/20 00:26:43;;;;;;;43.27;23.10;;;;;;;1.05;69.40;100362.75;5076002;27;20929;-67
2022/01/20 00:29:16;;;;;;;40.00;23.10;;;;;;;0.98;69.47;100353.69;5134078;27;20455;-67
2022/01/20 00:31:50;;;;;;;44.33;22.83;;;;;;;0.90;69.65;100364.69;5133705;27;20419;-67
2022/01/20 00:34:19;;;;;;;38.50;22.97;;;;;;;0.96;70.00;100364.25;5134472;27;20467;-67
2022/01/20 00:39:32;;;;;;;41.37;23.47;;;;;;;0.97;69.56;100359.88;5132974;27;20422;-66
2022/01/20 00:41:58;;;;;;;44.20;23.87;;;;;;;0.95;69.89;100352.13;5133687;27;20505;-67
2022/01/20 00:44:26;;;;;;;36.80;23.47;;;;;;;0.90;69.80;100343.78;5133672;27;20643;-67
2022/01/20 00:46:52;;;;;;;44.70;24.73;;;;;;;0.90;69.87;100338.53;5133674;27;20492;-68
2022/01/20 00:49:19;;;;;;;46.70;24.70;;;;;;;0.86;69.62;100349.38;5133375;27;21001;-67
2022/01/20 00:51:46;;;;;;;48.23;26.13;;;;;;;0.86;69.94;100342.34;5133692;27;20489;-67
2022/01/20 00:54:12;;;;;;;45.70;25.40;;;;;;;0.86;69.70;100339.72;5133983;27;20459;-67
2022/01/20 00:56:40;;;;;;;47.73;25.13;;;;;;;0.76;69.67;100336.13;5133461;27;20434;-67
2022/01/20 00:59:07;;;;;;;41.47;23.73;;;;;;;0.77;70.29;100345.63;5133077;27;20852;-68
2022/01/20 01:01:34;;;;;;;44.70;24.63;;;;;;;0.82;69.99;100334.84;5133072;27;20445;-67
2022/01/20 01:04:02;;;;;;;42.50;25.00;;;;;;;0.80;69.86;100331.50;5133558;27;20435;-67
2022/01/20 01:06:43;;;;;;;38.83;24.27;;;;;;;0.82;69.35;100329.63;5133183;27;20445;-67
2022/01/20 01:09:10;;;;;;;41.73;23.80;;;;;;;0.83;69.01;100326.06;5132997;27;20549;-68
2022/01/20 01:11:38;;;;;;;38.33;23.33;;;;;;;0.79;68.83;100309.78;5133446;27;20438;-68
2022/01/20 01:14:06;;;;;;;43.93;23.97;;;;;;;0.80;68.82;100314.03;5133454;27;20499;-68
2022/01/20 01:19:50;;;;;;;35.33;23.47;;;;;;;0.81;68.96;100307.03;5133585;27;20432;-67
2022/01/20 01:22:21;;;;;;;42.03;23.47;;;;;;;0.62;69.99;100297.13;5132914;27;20412;-68
2022/01/20 01:24:51;;;;;;;43.70;23.67;;;;;;;0.50;71.44;100295.41;5133186;27;20427;-68
2022/01/20 01:27:20;;;;;;;40.97;25.13;;;;;;;0.54;70.88;100290.78;5133612;27;20487;-68
2022/01/20 01:30:05;;;;;;;43.80;23.80;;;;;;;0.56;71.50;100297.56;5132466;27;20475;-68
2022/01/20 01:32:41;;;;;;;41.23;24.43;;;;;;;0.41;70.05;100256.91;5133914;27;20454;-68
2022/01/20 01:35:09;;;;;;;44.17;25.07;;;;;;;0.50;70.36;100277.13;5133167;27;20492;-68
2022/01/20 01:38:24;;;;;;;41.43;25.17;;;;;;;0.45;71.11;100274.00;5132770;27;20531;-68
2022/01/20 01:40:25;;;;;;;40.13;23.93;;;;;;;0.49;71.22;100264.16;5132770;28;20451;-68
2022/01/20 01:42:53;;;;;;;44.27;23.53;;;;;;;0.52;71.00;100270.00;5132639;27;20431;-68
2022/01/20 01:45:27;;;;;;;38.93;23.30;;;;;;;0.53;70.47;100274.25;5132322;28;20478;-68
2022/01/20 01:47:54;;;;;;;43.60;23.80;;;;;;;0.52;70.76;100269.19;5133178;27;20427;-68
2022/01/20 01:50:21;;;;;;;43.70;24.87;;;;;;;0.47;70.30;100266.88;5133724;27;20578;-68
2022/01/20 01:52:48;;;;;;;35.60;23.03;;;;;;;0.45;71.42;100263.53;5137084;27;20447;-68
2022/01/20 01:55:16;;;;;;;39.13;22.60;;;;;;;0.56;71.71;100257.56;5137060;27;20444;-68
2022/01/20 01:57:43;;;;;;;35.40;20.57;;;;;;;0.60;70.93;100256.38;5136651;27;20437;-68
2022/01/20 02:00:12;;;;;;;37.60;23.03;;;;;;;0.70;70.45;100263.41;5136802;27;20504;-68
2022/01/20 02:02:42;;;;;;;34.70;21.83;;;;;;;0.77;69.87;100258.56;5136864;27;20510;-68
2022/01/20 02:05:11;;;;;;;41.07;23.00;;;;;;;0.85;69.49;100254.38;5136371;27;20443;-68
2022/01/20 02:18:46;;;;;;;36.93;22.07;;;;;;;1.05;68.45;100245.84;5116093;28;20968;-68
2022/01/20 02:21:14;;;;;;;37.90;21.90;;;;;;;1.05;68.20;100238.00;5116241;28;20427;-68
2022/01/20 02:23:42;;;;;;;37.10;23.53;;;;;;;1.11;68.43;100237.56;5115843;28;20502;-68
2022/01/20 02:26:09;;;;;;;41.80;22.97;;;;;;;1.12;68.18;100233.97;5116210;27;20458;-68
2022/01/20 02:28:36;;;;;;;39.60;21.83;;;;;;;1.13;67.59;100235.63;5115914;28;20508;-68
2022/01/20 02:31:04;;;;;;;40.07;24.63;;;;;;;1.09;68.23;100239.44;5115721;28;20467;-68
2022/01/20 02:33:31;;;;;;;43.10;23.33;;;;;;;1.07;68.21;100236.13;5115512;28;20467;-68
2022/01/20 02:36:01;;;;;;;48.20;24.63;;;;;;;1.09;68.69;100228.13;5115652;28;20432;-68
2022/01/20 02:38:35;;;;;;;43.00;23.73;;;;;;;0.95;68.88;100204.84;5116002;28;20427;-68
2022/01/20 02:46:32;;;;;;;42.63;23.20;;;;;;;1.03;68.34;100223.38;5115700;28;20450;-68
2022/01/20 02:49:00;;;;;;;42.67;24.33;;;;;;;1.01;69.14;100218.28;5115158;28;20436;-68
2022/01/20 02:51:26;;;;;;;43.13;24.63;;;;;;;0.99;68.62;100217.56;5115408;28;20502;-68
2022/01/20 02:53:54;;;;;;;42.33;23.90;;;;;;;0.96;68.65;100223.03;5116023;28;20469;-68
2022/01/20 02:56:21;;;;;;;40.80;24.87;;;;;;;0.93;69.19;100218.03;5115167;28;20842;-68
2022/01/20 02:58:48;;;;;;;40.13;23.33;;;;;;;0.87;69.47;100205.44;5115023;28;21025;-68
2022/01/20 03:01:15;;;;;;;42.70;25.57;;;;;;;0.82;69.62;100204.97;5116070;28;20448;-67
2022/01/20 03:03:42;;;;;;;43.37;25.23;;;;;;;0.78;70.04;100203.53;5114724;28;20440;-67
2022/01/20 03:06:09;;;;;;;45.90;25.67;;;;;;;0.77;70.28;100201.03;5114810;28;20436;-67
2022/01/20 03:08:36;;;;;;;38.57;24.63;;;;;;;0.75;70.31;100209.00;5114977;28;20947;-67
2022/01/20 03:11:04;;;;;;;48.90;24.90;;;;;;;0.63;70.24;100204.69;5114819;28;21057;-67
2022/01/20 03:13:31;;;;;;;47.53;25.20;;;;;;;0.47;71.20;100203.34;5114592;28;20436;-67
2022/01/20 03:15:57;;;;;;;56.03;25.00;;;;;;;0.45;71.41;100197.41;5115634;28;20511;-67
2022/01/20 03:18:24;;;;;;;47.73;27.57;;;;;;;0.43;70.40;100197.50;5114811;28;20486;-69
2022/01/20 03:20:51;;;;;;;48.63;26.20;;;;;;;0.37;70.89;100192.75;5114780;28;20943;-66
2022/01/20 03:23:18;;;;;;;47.00;25.43;;;;;;;0.28;70.83;100188.19;5114881;28;20509;-68
2022/01/20 03:25:44;;;;;;;54.97;26.60;;;;;;;0.22;71.98;100193.06;5114417;28;20505;-68
2022/01/20 03:28:13;;;;;;;44.13;26.73;;;;;;;0.16;71.94;100202.16;5114480;28;20850;-69
2022/01/20 03:30:39;;;;;;;46.47;24.63;;;;;;;0.14;71.39;100196.25;5114960;28;20474;-68
2022/01/20 03:33:06;;;;;;;52.07;28.60;;;;;;;0.07;72.05;100184.56;5115367;28;20513;-68
2022/01/20 03:35:33;;;;;;;44.47;26.80;;;;;;;-0.11;71.56;100180.72;5114309;28;20440;-69
2022/01/20 03:38:00;;;;;;;41.30;25.43;;;;;;;-0.31;72.21;100171.72;5115105;28;20436;-69
2022/01/20 03:40:27;;;;;;;54.40;26.73;;;;;;;-0.26;72.51;100187.88;5114565;28;20444;-69
2022/01/20 03:42:53;;;;;;;54.87;28.47;;;;;;;-0.29;72.57;100184.63;5114210;28;20474;-69
2022/01/20 03:45:25;;;;;;;47.23;27.20;;;;;;;-0.39;73.10;100187.09;5115100;28;20849;-68
2022/01/20 03:47:54;;;;;;;45.33;26.70;;;;;;;-0.55;73.24;100183.09;5114102;28;20886;-68
2022/01/20 03:53:08;;;;;;;44.20;25.43;;;;;;;-0.87;73.97;100184.50;5088113;28;20492;-67
2022/01/20 03:55:34;;;;;;;47.33;24.83;;;;;;;-0.99;74.63;100185.38;5113854;28;20466;-67
2022/01/20 03:58:01;;;;;;;41.90;24.70;;;;;;;-0.93;74.43;100180.56;5114256;28;21067;-67
2022/01/20 04:00:29;;;;;;;54.20;25.97;;;;;;;-0.89;74.39;100178.59;5113786;28;20440;-67
2022/01/20 04:02:56;;;;;;;46.80;25.90;;;;;;;-0.86;74.30;100181.00;5113761;28;20436;-67
2022/01/20 04:05:23;;;;;;;54.60;25.03;;;;;;;-0.92;74.00;100189.22;5113488;28;21005;-67
2022/01/20 04:07:49;;;;;;;39.50;23.10;;;;;;;-1.09;74.32;100190.41;5113688;28;20931;-67
2022/01/20 04:10:16;;;;;;;42.73;24.23;;;;;;;-1.13;74.25;100188.97;5113864;28;20512;-69
2022/01/20 04:12:43;;;;;;;44.83;23.80;;;;;;;-1.24;75.05;100180.19;5113617;27;20498;-68
2022/01/20 04:15:10;;;;;;;45.83;23.53;;;;;;;-1.24;75.02;100174.97;5112785;28;20435;-69
2022/01/20 04:17:42;;;;;;;42.33;23.60;;;;;;;-1.21;75.13;100179.97;5113628;28;20436;-68
2022/01/20 04:20:10;;;;;;;44.37;23.07;;;;;;;-1.21;75.08;100182.59;5113961;28;20511;-68
2022/01/20 04:22:36;;;;;;;42.87;22.63;;;;;;;-1.25;75.60;100173.31;5113742;28;20448;-68
2022/01/20 04:25:04;;;;;;;39.43;22.90;;;;;;;-1.18;75.18;100175.38;5113372;28;20469;-68
2022/01/20 04:27:31;;;;;;;51.43;23.20;;;;;;;-1.10;75.09;100174.88;5113573;27;20436;-68
2022/01/20 04:29:57;;;;;;;46.50;23.93;;;;;;;-1.06;75.19;100179.75;5113391;28;20819;-68
2022/01/20 04:32:24;;;;;;;37.07;23.60;;;;;;;-1.05;74.90;100175.38;5113593;28;20445;-68
2022/01/20 04:34:52;;;;;;;40.80;23.57;;;;;;;-1.06;75.42;100173.72;5113360;28;20475;-68
2022/01/20 04:37:19;;;;;;;40.10;22.43;;;;;;;-1.01;75.62;100177.66;5113067;28;20428;-68
2022/01/20 04:39:49;;;;;;;57.83;27.07;;;;;;;-1.26;75.16;100182.09;5114299;28;20489;-68
2022/01/20 04:42:17;;;;;;;43.03;25.00;;;;;;;-1.42;75.71;100178.84;5113384;28;20428;-68
2022/01/20 04:44:48;;;;;;;44.83;22.93;;;;;;;-1.41;76.47;100172.69;5113131;28;20436;-68
2022/01/20 04:47:26;;;;;;;46.57;23.47;;;;;;;-1.34;76.46;100173.94;5113947;28;20436;-69
2022/01/20 04:58:06;;;;;;;56.27;27.57;;;;;;;-1.14;75.22;100173.41;5113040;28;20454;-68
2022/01/20 05:00:33;;;;;;;64.67;32.57;;;;;;;-1.13;74.46;100177.69;5113084;28;20440;-68
2022/01/20 05:03:03;;;;;;;54.13;29.70;;;;;;;-1.16;75.44;100173.53;5112857;28;20428;-67
2022/01/20 05:05:31;;;;;;;50.43;29.53;;;;;;;-1.10;74.61;100160.06;5112644;28;20455;-68
2022/01/20 05:07:59;;;;;;;52.73;28.40;;;;;;;-1.08;74.19;100167.78;5112437;28;20790;-68
2022/01/20 05:10:28;;;;;;;61.73;28.40;;;;;;;-1.06;74.19;100173.72;5112357;28;20468;-68
2022/01/20 05:13:09;;;;;;;52.93;27.43;;;;;;;-1.15;74.23;100176.94;5112777;27;20436;-68
2022/01/20 05:15:36;;;;;;;59.23;30.33;;;;;;;-1.21;75.33;100174.78;5112982;28;20830;-68
2022/01/20 05:18:03;;;;;;;49.83;26.80;;;;;;;-1.35;75.30;100174.91;5112375;28;20436;-69
2022/01/20 05:20:31;;;;;;;55.60;27.90;;;;;;;-1.46;76.64;100174.78;5111908;28;20441;-68
2022/01/20 05:22:58;;;;;;;43.13;26.60;;;;;;;-1.45;77.06;100171.22;5112521;28;20432;-68
2022/01/20 05:25:25;;;;;;;52.20;26.03;;;;;;;-1.38;77.15;100178.53;5111892;28;20440;-68
2022/01/20 05:27:51;;;;;;;47.87;26.03;;;;;;;-1.31;76.73;100178.97;5112100;28;20492;-68
2022/01/20 05:30:18;;;;;;;44.83;26.00;;;;;;;-1.33;76.98;100181.66;5112311;28;20473;-68
2022/01/20 05:32:45;;;;;;;41.17;24.90;;;;;;;-1.33;76.71;100170.41;5111966;28;20440;-68
2022/01/20 05:35:11;;;;;;;46.17;25.33;;;;;;;-1.37;76.34;100174.16;5112412;28;20468;-68
2022/01/20 05:37:41;;;;;;;42.63;22.43;;;;;;;-1.38;77.20;100172.50;5111491;28;20484;-68
2022/01/20 05:40:09;;;;;;;43.47;21.77;;;;;;;-1.36;76.95;100183.63;5112497;28;20440;-68
2022/01/20 05:42:37;;;;;;;38.30;21.87;;;;;;;-1.36;76.74;100175.81;5112116;28;20496;-68
2022/01/20 05:45:05;;;;;;;43.63;21.67;;;;;;;-1.36;76.93;100181.03;5111957;28;20472;-68
2022/01/20 05:47:33;;;;;;;32.57;20.27;;;;;;;-1.33;76.58;100175.63;5111874;28;20428;-68
2022/01/20 05:50:00;;;;;;;33.10;18.70;;;;;;;-1.36;75.43;100181.88;5112480;28;20432;-68
2022/01/20 05:52:27;;;;;;;30.87;19.47;;;;;;;-1.48;76.39;100176.66;5111795;28;20528;-68
2022/01/20 05:54:55;;;;;;;32.53;21.37;;;;;;;-1.47;77.59;100167.91;5111549;28;20834;-68
2022/01/20 05:57:21;;;;;;;40.23;22.17;;;;;;;-1.41;77.42;100172.69;5112052;28;20428;-68
2022/01/20 05:59:49;;;;;;;47.27;23.70;;;;;;;-1.35;77.01;100152.25;5111696;28;21055;-67
2022/01/20 06:02:29;;;;;;;53.33;29.97;;;;;;;-1.25;76.80;100162.91;5111676;28;20439;-68
2022/01/20 06:04:56;;;;;;;38.73;22.17;;;;;;;-1.19;76.58;100152.03;5111863;28;20467;-68
2022/01/20 06:07:23;;;;;;;34.60;20.67;;;;;;;-1.20;76.43;100152.97;5112065;28;20446;-68
2022/01/20 06:09:50;;;;;;;40.13;22.60;;;;;;;-1.30;76.41;100154.56;5111621;28;20433;-68
2022/01/20 06:12:18;;;;;;;38.80;20.93;;;;;;;-1.40;77.13;100148.31;5112924;28;20828;-68
2022/01/20 06:14:44;;;;;;;29.30;18.70;;;;;;;-1.51;77.39;100150.84;5111720;28;20440;-68
2022/01/20 06:17:11;;;;;;;29.83;19.23;;;;;;;-1.40;77.38;100138.72;5111953;28;20808;-67
2022/01/20 06:19:38;;;;;;;30.17;18.40;;;;;;;-1.33;77.82;100139.97;5111653;28;21049;-70
2022/01/20 06:22:05;;;;;;;32.07;19.23;;;;;;;-1.04;77.01;100149.22;5111717;28;20447;-70
2022/01/20 06:24:31;;;;;;;31.77;18.97;;;;;;;-0.74;76.41;100148.81;5112137;28;20444;-71
2022/01/20 06:26:58;;;;;;;37.10;19.90;;;;;;;-0.53;73.99;100160.34;5111669;28;20501;-71
2022/01/20 06:29:26;;;;;;;33.87;19.40;;;;;;;-0.32;75.42;100161.41;5111584;28;20829;-70
2022/01/20 06:31:53;;;;;;;30.87;21.33;;;;;;;0.00;74.51;100149.44;5107875;28;20485;-69
2022/01/20 06:34:20;;;;;;;38.23;22.90;;;;;;;0.36;72.97;100162.34;5111312;28;20464;-69
2022/01/20 06:36:47;;;;;;;44.17;20.27;;;;;;;0.70;72.56;100156.22;5111597;28;20801;-69
2022/01/20 06:39:13;;;;;;;33.07;20.70;;;;;;;1.08;70.76;100159.31;5115671;28;20565;-73
2022/01/20 06:41:40;;;;;;;38.13;23.00;;;;;;;1.51;70.71;100156.75;5115631;28;20516;-75
2022/01/20 06:44:07;;;;;;;35.20;21.60;;;;;;;1.94;67.18;100161.00;5115094;28;20934;-71
2022/01/20 06:46:35;;;;;;;35.73;20.67;;;;;;;2.20;64.83;100178.03;5115153;28;20432;-71
2022/01/20 06:49:02;;;;;;;39.60;23.10;;;;;;;1.91;64.86;100176.16;5115089;28;20428;-71
2022/01/20 06:51:29;;;;;;;54.57;31.93;;;;;;;1.82;67.07;100171.63;5115076;28;20480;-72
2022/01/20 06:53:56;;;;;;;59.43;36.00;;;;;;;1.95;65.04;100178.38;5115084;28;20440;-70
2022/01/20 06:56:23;;;;;;;43.77;24.27;;;;;;;2.34;71.05;100164.63;5111403;28;20505;-71
2022/01/20 06:58:49;;;;;;;44.20;26.10;;;;;;;3.05;65.38;100179.50;5108770;28;20440;-71
2022/01/20 07:01:16;;;;;;;34.90;20.70;;;;;;;3.37;62.90;100167.03;5102816;28;20943;-74
2022/01/20 07:03:45;;;;;;;32.57;22.17;;;;;;;3.61;60.04;100176.25;5094866;28;20445;-73
2022/01/20 07:06:11;;;;;;;38.47;23.77;;;;;;;4.30;61.38;100184.84;5112165;28;20805;-72
2022/01/20 07:08:38;;;;;;;29.03;21.07;;;;;;;4.96;57.27;100186.53;5115003;28;20262;-71
2022/01/20 07:11:05;;;;;;;29.07;20.40;;;;;;;5.30;53.40;100183.19;5115064;28;20479;-72
2022/01/20 07:13:31;;;;;;;39.17;22.57;;;;;;;5.36;53.27;100185.25;5115108;28;20247;-73
2022/01/20 07:15:58;;;;;;;35.77;22.83;;;;;;;5.55;52.92;100187.78;5114988;28;20195;-70
2022/01/20 07:18:25;;;;;;;38.43;22.60;;;;;;;5.81;50.54;100181.84;5114575;28;20653;-68
2022/01/20 07:20:53;;;;;;;39.80;23.40;;;;;;;5.74;49.47;100187.69;5114532;28;20654;-69
2022/01/20 07:23:20;;;;;;;39.37;23.80;;;;;;;5.83;50.47;100190.44;5114503;28;20195;-71
2022/01/20 07:25:47;;;;;;;42.70;24.97;;;;;;;5.60;50.12;100175.00;5114496;28;20200;-72
2022/01/20 07:28:14;;;;;;;48.27;26.13;;;;;;;5.76;50.54;100153.28;5114433;28;20202;-73
2022/01/20 07:30:40;;;;;;;42.07;24.43;;;;;;;5.83;50.83;100150.91;5113609;28;20657;-70
2022/01/20 07:33:08;;;;;;;57.57;28.10;;;;;;;5.61;51.04;100139.75;5114339;28;20191;-75
2022/01/20 07:35:35;;;;;;;85.80;36.03;;;;;;;5.72;49.55;100126.38;5114540;28;20559;-70
2022/01/20 07:38:04;;;;;;;63.30;32.10;;;;;;;6.12;49.81;100147.03;5114276;28;20194;-70
2022/01/20 07:40:32;;;;;;;58.17;25.43;;;;;;;6.27;48.82;100137.59;5114506;28;20200;-69
2022/01/20 07:42:59;;;;;;;75.67;27.63;;;;;;;6.45;49.16;100145.50;5114229;28;20199;-68
2022/01/20 07:45:25;;;;;;;46.87;23.97;;;;;;;6.67;47.78;100142.34;5114192;28;20195;-68
2022/01/20 07:47:52;;;;;;;39.47;23.57;;;;;;;6.82;47.76;100154.81;5114145;28;20261;-67
2022/01/20 07:50:19;;;;;;;45.10;25.73;;;;;;;6.95;45.78;100149.97;5114063;28;20255;-66
2022/01/20 07:52:47;;;;;;;38.97;25.67;;;;;;;6.98;45.64;100140.88;5114117;28;20366;-70
2022/01/20 07:55:15;;;;;;;57.67;28.23;;;;;;;6.96;46.18;100137.56;5114316;28;20193;-71
2022/01/20 07:57:42;;;;;;;38.87;23.70;;;;;;;6.94;45.50;100142.19;5113580;28;20653;-69
2022/01/20 08:00:10;;;;;;;44.37;22.43;;;;;;;6.57;47.32;100139.00;5114291;28;20200;-69
2022/01/20 08:02:37;;;;;;;37.17;20.60;;;;;;;6.15;49.18;100132.72;5113907;28;20277;-68
2022/01/20 08:05:05;;;;;;;41.17;22.33;;;;;;;6.18;48.67;100130.63;5114086;28;20197;-69
2022/01/20 08:07:31;;;;;;;42.13;23.07;;;;;;;6.04;48.52;100067.03;5114081;28;20194;-69
2022/01/20 08:09:59;;;;;;;40.63;20.97;;;;;;;6.90;46.95;100140.84;5113549;28;20192;-68
2022/01/20 08:12:27;;;;;;;38.97;22.53;;;;;;;7.27;45.55;100146.63;5113903;27;20220;-68
2022/01/20 08:14:55;;;;;;;26.40;19.97;;;;;;;7.43;43.72;100136.13;5113599;28;20663;-70
2022/01/20 08:17:22;;;;;;;37.60;21.03;;;;;;;7.40;44.60;100142.56;5113834;28;20190;-70
2022/01/20 08:19:50;;;;;;;46.70;28.13;;;;;;;7.83;54.70;100128.28;5113581;28;20257;-68
2022/01/20 08:22:17;;;;;;;62.13;30.53;;;;;;;8.70;43.21;100140.72;5113831;28;20640;-68
2022/01/20 08:24:49;;;;;;;42.43;26.17;;;;;;;9.17;41.73;100133.63;5113548;28;20187;-71
2022/01/20 08:27:16;;;;;;;43.47;27.20;;;;;;;9.45;40.27;100136.66;5113111;28;20196;-67
2022/01/20 08:29:45;;;;;;;50.67;25.80;;;;;;;9.66;39.80;100131.56;5113487;28;20259;-66
2022/01/20 08:32:12;;;;;;;44.07;25.53;;;;;;;9.72;39.60;100134.34;5113359;28;20218;-63
2022/01/20 08:34:38;;;;;;;39.03;24.60;;;;;;;10.14;40.28;100132.09;5113263;28;20270;-71
2022/01/20 08:37:05;;;;;;;37.13;23.30;;;;;;;10.43;36.67;100136.69;5113448;28;20247;-70
2022/01/20 08:39:42;;;;;;;46.97;23.43;;;;;;;10.49;36.57;100141.28;5100208;28;20663;-68
2022/01/20 08:42:09;;;;;;;29.43;20.40;;;;;;;10.80;39.17;100129.53;5113312;28;20559;-68
2022/01/20 08:44:44;;;;;;;33.27;21.53;;;;;;;11.27;36.11;100131.81;5112430;28;20659;-71
2022/01/20 08:47:16;;;;;;;31.33;23.20;;;;;;;11.90;35.57;100129.34;5113077;28;20183;-69
2022/01/20 08:49:44;;;;;;;38.53;21.23;;;;;;;12.31;33.27;100122.34;5112689;28;20189;-69
2022/01/20 08:52:10;;;;;;;37.53;25.07;;;;;;;12.42;32.41;100092.50;5112325;28;20281;-71
2022/01/20 08:54:37;;;;;;;38.37;25.23;;;;;;;12.56;31.96;100115.59;5112885;28;20193;-71
2022/01/20 08:57:05;;;;;;;32.40;22.27;;;;;;;12.21;31.42;100111.19;5112968;28;20197;-73
2022/01/20 08:59:31;;;;;;;35.80;21.13;;;;;;;11.64;32.47;100107.72;5112222;28;20196;-71
2022/01/20 09:01:58;;;;;;;32.93;20.20;;;;;;;11.49;33.91;100111.41;5112202;28;20661;-75
2022/01/20 09:04:26;;;;;;;35.23;21.50;;;;;;;11.37;33.48;100121.72;5112728;28;20249;-70
2022/01/20 09:06:53;;;;;;;40.10;22.30;;;;;;;11.25;33.31;100133.84;5112578;28;20187;-71
2022/01/20 09:09:21;;;;;;;26.93;15.50;;;;;;;11.15;32.65;100130.63;5112276;28;20198;-70
2022/01/20 09:12:03;;;;;;;31.50;15.37;;;;;;;10.75;33.04;100136.41;5112506;28;20306;-71
2022/01/20 09:17:14;;;;;;;22.73;15.00;;;;;;;10.02;34.37;100130.84;5112300;28;20177;-70
2022/01/20 09:19:42;;;;;;;42.07;15.37;;;;;;;9.97;34.48;100124.44;5111861;28;20243;-71
2022/01/20 09:22:09;;;;;;;23.07;14.10;;;;;;;10.20;34.06;100119.94;5112486;28;20191;-72
2022/01/20 09:24:36;;;;;;;33.37;16.03;;;;;;;10.38;33.05;100113.31;5112312;28;20198;-71
2022/01/20 09:27:03;;;;;;;24.17;17.37;;;;;;;9.85;34.39;100083.38;5112428;28;20195;-76
2022/01/20 09:29:29;;;;;;;24.70;17.03;;;;;;;9.72;34.99;100107.03;5111584;28;20628;-70
2022/01/20 09:31:56;;;;;;;28.93;18.37;;;;;;;9.83;33.90;100114.56;5111980;28;20258;-74
2022/01/20 09:34:24;;;;;;;26.27;18.07;;;;;;;9.88;34.94;100098.91;5112319;28;20291;-74
2022/01/20 09:36:53;;;;;;;28.40;18.77;;;;;;;9.80;35.22;100096.34;5111440;28;20222;-73
2022/01/20 09:39:20;;;;;;;43.07;20.30;;;;;;;9.81;35.42;100082.88;5112143;28;20202;-71
2022/01/20 09:41:48;;;;;;;36.23;20.30;;;;;;;10.11;34.43;100083.84;5112113;28;20251;-72
2022/01/20 09:44:15;;;;;;;29.13;19.57;;;;;;;10.10;34.13;100076.91;5112213;28;20190;-72
2022/01/20 09:46:41;;;;;;;34.10;20.53;;;;;;;10.00;34.49;100066.50;5111984;28;20198;-71
2022/01/20 09:49:11;;;;;;;38.67;18.83;;;;;;;10.17;34.47;100059.28;5111516;28;20190;-70
2022/01/20 09:51:38;;;;;;;34.87;19.07;;;;;;;10.33;33.90;100041.34;5111890;28;20198;-71
2022/01/20 09:54:06;;;;;;;33.50;19.13;;;;;;;10.35;34.02;100038.50;5111843;28;20267;-72
2022/01/20 09:56:34;;;;;;;32.83;19.83;;;;;;;10.20;33.24;100019.06;5111865;28;20191;-69
2022/01/20 09:59:00;;;;;;;30.80;18.20;;;;;;;10.21;33.54;100010.94;5111918;28;20271;-69
2022/01/20 10:01:38;;;;;;;30.50;18.47;;;;;;;10.37;32.88;100021.38;5112144;28;20190;-68
2022/01/20 10:04:05;;;;;;;39.70;20.83;;;;;;;10.59;33.03;100017.81;5111802;28;20187;-71
2022/01/20 10:06:32;;;;;;;37.67;20.23;;;;;;;10.81;32.82;100008.94;5111894;28;20354;-69
2022/01/20 10:09:00;;;;;;;37.07;21.17;;;;;;;10.67;32.85;100007.09;5111926;28;20199;-68
2022/01/20 10:11:29;;;;;;;44.00;23.63;;;;;;;10.60;32.91;99989.44;5113053;28;20359;-70
2022/01/20 10:13:59;;;;;;;35.10;21.77;;;;;;;10.62;33.00;99987.44;5115530;28;20216;-69
2022/01/20 10:16:26;;;;;;;33.77;20.53;;;;;;;10.80;32.98;99979.88;5115441;28;20196;-70
2022/01/20 10:18:55;;;;;;;29.57;21.27;;;;;;;10.99;32.54;99974.81;5116169;28;20283;-68
2022/01/20 10:21:28;;;;;;;45.30;20.43;;;;;;;11.03;32.37;99968.09;5116091;28;20596;-68
2022/01/20 10:23:55;;;;;;;45.37;20.47;;;;;;;10.91;32.25;99976.75;5115483;28;20188;-68
2022/01/20 10:26:23;;;;;;;27.70;19.57;;;;;;;10.75;32.35;99976.97;5115652;28;20631;-66
2022/01/20 10:28:59;;;;;;;32.83;18.17;;;;;;;10.85;32.48;99966.84;5115512;28;20655;-67
2022/01/20 10:31:39;;;;;;;35.67;19.47;;;;;;;10.95;31.85;99962.09;5115671;28;20183;-66
2022/01/20 10:34:09;;;;;;;44.47;23.40;;;;;;;11.13;31.80;99943.03;5115766;28;20228;-67
2022/01/20 10:36:40;;;;;;;44.63;26.47;;;;;;;11.34;32.09;99941.22;5115247;28;20222;-67
2022/01/20 10:39:07;;;;;;;46.37;26.10;;;;;;;11.46;32.08;99933.56;5115168;28;20630;-67
2022/01/20 10:41:36;;;;;;;40.80;25.00;;;;;;;11.62;32.00;99934.16;5115408;28;20201;-68
2022/01/20 10:44:10;;;;;;;48.17;25.90;;;;;;;11.59;32.06;99931.84;5115254;28;20192;-66
2022/01/20 10:46:44;;;;;;;45.33;26.87;;;;;;;11.52;31.41;99925.66;5115198;28;20185;-67
2022/01/20 10:49:11;;;;;;;44.90;25.20;;;;;;;11.44;31.43;99920.47;5115440;28;20197;-67
2022/01/20 10:51:38;;;;;;;54.47;27.00;;;;;;;11.32;31.27;99908.69;5113308;28;20257;-70
2022/01/20 10:54:07;;;;;;;53.17;26.30;;;;;;;11.23;32.35;99904.50;5114509;28;20380;-69
2022/01/20 10:56:47;;;;;;;53.70;27.27;;;;;;;11.29;32.37;99895.78;5114956;28;20667;-69
2022/01/20 10:59:15;;;;;;;45.10;28.47;;;;;;;11.13;32.68;99895.19;5094780;28;20193;-70
2022/01/20 11:01:42;;;;;;;56.80;29.47;;;;;;;11.19;33.17;99892.59;5109664;28;20314;-69
2022/01/20 11:04:10;;;;;;;50.00;29.13;;;;;;;11.40;33.08;99887.28;5114535;28;20546;-68
2022/01/20 11:06:37;;;;;;;55.80;28.97;;;;;;;11.50;33.35;99882.44;5114853;28;20192;-69
2022/01/20 11:09:07;;;;;;;52.03;27.97;;;;;;;11.57;33.68;99875.34;5114706;28;20571;-70
2022/01/20 11:11:34;;;;;;;49.43;27.10;;;;;;;11.60;33.46;99872.31;5113886;28;20668;-68
2022/01/20 11:14:01;;;;;;;47.13;27.20;;;;;;;11.51;33.02;99878.78;5114607;28;20704;-69
2022/01/20 11:16:29;;;;;;;52.40;26.00;;;;;;;11.59;33.14;99869.84;5115060;28;20201;-69
2022/01/20 11:18:56;;;;;;;46.87;25.20;;;;;;;11.54;32.74;99867.75;5114505;28;20695;-68
2022/01/20 11:21:27;;;;;;;42.53;24.33;;;;;;;11.42;32.97;99855.97;5114397;28;20664;-68
2022/01/20 11:23:54;;;;;;;34.83;22.67;;;;;;;11.53;32.80;99860.78;5113915;28;20668;-69
2022/01/20 11:26:20;;;;;;;36.13;21.50;;;;;;;11.53;32.59;99860.78;5114364;28;20196;-68
2022/01/20 11:28:59;;;;;;;30.73;21.13;;;;;;;11.46;32.97;99856.41;5114497;28;20249;-69
2022/01/20 11:31:35;;;;;;;31.30;20.27;;;;;;;11.49;33.50;99854.22;5115048;28;20248;-68
2022/01/20 11:34:13;;;;;;;29.90;19.77;;;;;;;11.51;33.81;99835.41;5114168;27;20238;-68
2022/01/20 11:36:41;;;;;;;36.87;19.40;;;;;;;11.55;34.19;99841.97;5114256;28;20246;-68
2022/01/20 11:39:07;;;;;;;32.00;19.87;;;;;;;11.24;34.71;99845.00;5114814;27;20192;-68
2022/01/20 11:41:37;;;;;;;33.20;18.93;;;;;;;11.30;34.46;99832.78;5113888;27;20240;-68
2022/01/20 11:44:12;;;;;;;30.53;18.03;;;;;;;11.16;35.44;99826.53;5114490;28;20197;-69
2022/01/20 11:46:44;;;;;;;29.13;18.13;;;;;;;11.10;35.05;99827.28;5113933;28;20194;-68
2022/01/20 11:49:12;;;;;;;25.63;16.27;;;;;;;10.96;35.17;99820.22;5113986;28;20667;-67
2022/01/20 11:51:51;;;;;;;25.97;16.27;;;;;;;11.01;35.30;99828.41;5112303;28;20373;-67
2022/01/20 11:54:28;;;;;;;21.83;15.60;;;;;;;11.03;34.75;99831.72;5113628;28;20764;-68
2022/01/20 11:57:06;;;;;;;22.63;15.13;;;;;;;11.06;34.93;99809.25;5113801;28;20245;-68
2022/01/20 11:59:36;;;;;;;23.07;16.27;;;;;;;11.18;34.88;99818.38;5113912;28;20184;-70
2022/01/20 12:02:04;;;;;;;25.07;16.13;;;;;;;11.25;34.26;99806.75;5112375;28;20328;-71
2022/01/20 12:04:32;;;;;;;36.27;16.17;;;;;;;11.30;34.55;99804.34;5101515;28;20280;-68
2022/01/20 12:06:59;;;;;;;28.17;17.10;;;;;;;11.16;34.89;99802.59;5113506;28;20249;-69
2022/01/20 12:09:30;;;;;;;27.43;15.93;;;;;;;11.14;34.50;99804.59;5113620;28;20258;-69
2022/01/20 12:11:57;;;;;;;29.27;16.47;;;;;;;11.28;34.44;99806.38;5113514;28;20192;-69
2022/01/20 12:14:35;;;;;;;31.90;17.83;;;;;;;11.31;34.14;99803.31;5113832;28;20271;-68